createdAt,value
2018-05-15T00:01:55.531Z,72.85
2018-05-15T00:04:22.236Z,73.04
2018-05-15T00:06:48.977Z,73.05
2018-05-15T00:09:15.525Z,73.24
2018-05-15T00:11:42.184Z,73.30
2018-05-15T00:14:08.694Z,73.13
2018-05-15T00:16:35.346Z,72.89
2018-05-15T00:19:01.961Z,72.76
2018-05-15T00:21:28.574Z,72.86
2018-05-15T00:23:55.239Z,73.03
2018-05-15T00:26:21.846Z,73.21
2018-05-15T00:28:48.336Z,72.87
2018-05-15T00:31:15.009Z,72.76
2018-05-15T00:33:41.606Z,72.79
2018-05-15T00:36:08.205Z,72.72
2018-05-15T00:38:34.841Z,72.68
2018-05-15T00:41:01.426Z,72.80
2018-05-15T00:43:28.044Z,72.65
2018-05-15T00:45:54.637Z,72.65
2018-05-15T00:48:21.350Z,72.40
2018-05-15T00:50:48.000Z,72.57
2018-05-15T00:53:14.610Z,72.49
2018-05-15T00:55:43.906Z,72.05
2018-05-15T00:58:10.411Z,71.90
2018-05-15T01:00:36.969Z,72.19
2018-05-15T01:03:03.581Z,72.06
2018-05-15T01:05:30.308Z,72.11
2018-05-15T01:07:56.869Z,71.91
2018-05-15T01:10:23.593Z,71.87
2018-05-15T01:12:50.156Z,71.86
2018-05-15T01:15:16.872Z,72.05
2018-05-15T01:17:43.384Z,72.14
2018-05-15T01:20:10.065Z,71.91
2018-05-15T01:22:36.784Z,72.13
2018-05-15T01:25:03.485Z,72.14
2018-05-15T01:27:29.979Z,72.10
2018-05-15T01:29:56.716Z,72.12
2018-05-15T01:32:23.402Z,72.16
2018-05-15T01:34:49.892Z,72.14
2018-05-15T01:37:16.603Z,72.18
2018-05-15T01:39:43.228Z,72.26
2018-05-15T01:42:09.748Z,72.26
2018-05-15T01:44:36.340Z,72.26
2018-05-15T01:47:02.851Z,72.34
2018-05-15T01:49:29.387Z,72.41
2018-05-15T01:51:55.838Z,72.68
2018-05-15T01:54:22.317Z,72.82
2018-05-15T01:56:48.866Z,72.98
2018-05-15T01:59:15.397Z,73.13
2018-05-15T02:01:41.920Z,73.15
2018-05-15T02:04:08.369Z,73.08
2018-05-15T02:06:35.044Z,73.14
2018-05-15T02:09:01.600Z,73.24
2018-05-15T02:11:28.150Z,73.63
2018-05-15T02:13:54.672Z,73.77
2018-05-15T02:16:21.131Z,73.66
2018-05-15T02:18:47.740Z,73.53
2018-05-15T02:21:14.181Z,73.36
2018-05-15T02:23:40.718Z,73.50
2018-05-15T02:26:07.173Z,73.58
2018-05-15T02:28:33.645Z,73.62
2018-05-15T02:31:00.284Z,73.74
2018-05-15T02:33:33.827Z,73.97
2018-05-15T02:36:00.504Z,73.97
2018-05-15T02:38:27.023Z,74.02
2018-05-15T02:40:53.581Z,73.99
2018-05-15T02:43:20.059Z,74.10
2018-05-15T02:45:46.593Z,73.99
2018-05-15T02:48:13.141Z,74.03
2018-05-15T02:50:39.673Z,74.01
2018-05-15T02:53:06.311Z,73.98
2018-05-15T02:55:32.945Z,73.94
2018-05-15T02:57:59.456Z,73.85
2018-05-15T03:00:26.073Z,74.00
2018-05-15T03:02:52.737Z,73.98
2018-05-15T03:05:19.266Z,74.00
2018-05-15T03:07:45.812Z,74.03
2018-05-15T03:10:12.376Z,74.07
2018-05-15T03:12:38.901Z,74.02
2018-05-15T03:15:05.542Z,74.08
2018-05-15T03:17:32.192Z,74.12
2018-05-15T03:19:58.801Z,73.85
2018-05-15T03:22:25.301Z,73.80
2018-05-15T03:24:51.743Z,73.67
2018-05-15T03:27:18.468Z,73.77
2018-05-15T03:29:44.956Z,73.46
2018-05-15T03:32:11.588Z,72.86
2018-05-15T03:34:38.210Z,73.23
2018-05-15T03:37:04.750Z,73.43
2018-05-15T03:39:31.444Z,75.65
2018-05-15T03:41:57.939Z,74.31
2018-05-15T03:44:24.488Z,73.88
2018-05-15T03:46:51.142Z,73.73
2018-05-15T03:49:17.713Z,73.70
2018-05-15T03:51:44.353Z,73.71
2018-05-15T03:54:11.009Z,73.84
2018-05-15T03:56:37.451Z,73.64
2018-05-15T03:59:04.033Z,73.38
2018-05-15T04:06:29.830Z,73.76
2018-05-15T04:08:56.281Z,74.03
2018-05-15T04:11:22.832Z,74.25
2018-05-15T04:13:49.368Z,73.93
2018-05-15T04:16:15.884Z,73.76
2018-05-15T04:18:42.408Z,73.70
2018-05-15T04:21:08.949Z,73.67
2018-05-15T04:23:35.479Z,73.45
2018-05-15T04:26:01.980Z,73.29
2018-05-15T04:28:28.710Z,73.21
2018-05-15T04:30:55.215Z,72.82
2018-05-15T04:33:21.861Z,72.73
2018-05-15T04:35:48.532Z,72.52
2018-05-15T04:38:15.041Z,72.56
2018-05-15T04:40:41.647Z,72.85
2018-05-15T04:43:08.358Z,72.80
2018-05-15T04:45:35.098Z,72.74
2018-05-15T04:48:01.592Z,72.73
2018-05-15T04:50:28.745Z,72.61
2018-05-15T04:52:55.205Z,72.78
2018-05-15T04:55:21.769Z,72.54
2018-05-15T04:57:48.461Z,72.67
2018-05-15T05:00:15.101Z,72.95
2018-05-15T05:02:41.869Z,72.65
2018-05-15T05:05:08.439Z,72.53
2018-05-15T05:07:35.305Z,72.36
2018-05-15T05:10:02.093Z,72.11
2018-05-15T05:12:28.685Z,71.50
2018-05-15T05:14:55.232Z,71.25
2018-05-15T05:17:21.822Z,71.35
2018-05-15T05:19:48.426Z,70.96
2018-05-15T05:22:15.165Z,70.45
2018-05-15T05:24:41.941Z,69.87
2018-05-15T05:27:08.775Z,69.65
2018-05-15T05:29:35.394Z,70.42
2018-05-15T05:32:01.924Z,70.87
2018-05-15T05:34:28.424Z,71.02
2018-05-15T05:36:54.909Z,70.65
2018-05-15T05:39:21.406Z,69.46
2018-05-15T05:41:48.031Z,68.51
2018-05-15T05:44:14.527Z,67.73
2018-05-15T05:46:41.156Z,67.08
2018-05-15T05:49:07.817Z,66.61
2018-05-15T05:51:34.541Z,65.73
2018-05-15T05:54:01.207Z,65.74
2018-05-15T05:56:27.828Z,65.27
2018-05-15T05:58:54.390Z,65.83
2018-05-15T06:01:21.121Z,65.05
2018-05-15T06:03:47.646Z,65.04
2018-05-15T06:06:14.236Z,64.20
2018-05-15T06:08:40.761Z,64.79
2018-05-15T06:11:07.350Z,64.49
2018-05-15T06:13:33.820Z,64.09
2018-05-15T06:16:00.556Z,63.51
2018-05-15T06:18:27.044Z,63.62
2018-05-15T06:20:53.739Z,64.15
2018-05-15T06:23:20.298Z,63.18
2018-05-15T06:25:46.899Z,62.97
2018-05-15T06:28:13.479Z,63.23
2018-05-15T06:30:40.232Z,62.86
2018-05-15T06:33:06.903Z,62.91
2018-05-15T06:35:33.497Z,62.85
2018-05-15T06:40:52.585Z,61.77
2018-05-15T06:43:19.274Z,61.70
2018-05-15T06:45:46.021Z,61.29
2018-05-15T06:48:12.450Z,61.15
2018-05-15T06:50:39.237Z,60.11
2018-05-15T06:53:05.752Z,59.94
2018-05-15T06:55:32.318Z,59.55
2018-05-15T06:57:59.037Z,59.70
2018-05-15T07:00:25.538Z,59.21
2018-05-15T07:02:52.080Z,60.04
2018-05-15T07:05:18.661Z,59.22
2018-05-15T07:07:45.313Z,60.17
2018-05-15T07:10:11.807Z,60.17
2018-05-15T07:12:38.413Z,59.35
2018-05-15T07:15:05.004Z,58.24
2018-05-15T07:17:31.543Z,58.77
2018-05-15T07:19:58.124Z,58.39
2018-05-15T07:22:24.760Z,58.62
2018-05-15T07:24:51.346Z,58.43
2018-05-15T07:29:58.812Z,57.97
2018-05-15T07:32:25.334Z,57.73
2018-05-15T07:34:52.029Z,58.04
2018-05-15T07:37:18.660Z,57.96
2018-05-15T07:39:45.218Z,57.47
2018-05-15T07:42:11.749Z,57.75
2018-05-15T07:44:38.260Z,58.30
2018-05-15T07:47:04.937Z,57.66
2018-05-15T07:49:31.598Z,57.49
2018-05-15T07:51:58.101Z,57.46
2018-05-15T07:54:24.583Z,56.82
2018-05-15T07:56:51.216Z,55.86
2018-05-15T07:59:17.886Z,55.76
2018-05-15T08:01:44.497Z,56.57
2018-05-15T08:04:11.273Z,55.59
2018-05-15T08:06:37.854Z,55.46
2018-05-15T08:09:05.343Z,54.44
2018-05-15T08:11:31.912Z,54.11
2018-05-15T08:13:58.428Z,54.31
2018-05-15T08:16:25.028Z,54.18
2018-05-15T08:18:51.530Z,54.55
2018-05-15T08:21:18.208Z,53.92
2018-05-15T08:23:44.921Z,54.38
2018-05-15T08:26:11.377Z,53.25
2018-05-15T08:28:37.903Z,53.30
2018-05-15T08:31:04.371Z,53.75
2018-05-15T08:33:30.941Z,54.00
2018-05-15T08:35:57.486Z,53.63
2018-05-15T08:38:24.012Z,53.68
2018-05-15T08:40:50.833Z,53.52
2018-05-15T08:43:17.465Z,52.73
2018-05-15T08:45:43.960Z,53.41
2018-05-15T08:48:10.473Z,53.78
2018-05-15T08:50:37.028Z,52.92
2018-05-15T08:53:03.882Z,52.44
2018-05-15T08:55:30.507Z,52.62
2018-05-15T08:57:57.018Z,52.97
2018-05-15T09:00:23.810Z,52.53
2018-05-15T09:02:50.487Z,51.94
2018-05-15T09:05:16.897Z,52.41
2018-05-15T09:07:43.576Z,52.46
2018-05-15T09:10:10.038Z,52.66
2018-05-15T09:12:36.605Z,52.16
2018-05-15T09:15:03.258Z,51.05
2018-05-15T09:17:29.780Z,51.05
2018-05-15T09:19:56.437Z,51.14
2018-05-15T09:22:22.950Z,51.33
2018-05-15T09:27:41.739Z,51.02
2018-05-15T09:30:08.374Z,51.20
2018-05-15T09:32:34.900Z,51.47
2018-05-15T09:35:01.777Z,52.06
2018-05-15T09:37:28.275Z,51.93
2018-05-15T09:39:54.850Z,51.34
2018-05-15T09:42:21.374Z,51.90
2018-05-15T09:44:47.990Z,51.68
2018-05-15T09:47:14.796Z,51.13
2018-05-15T09:49:42.074Z,51.52
2018-05-15T09:52:09.011Z,52.10
2018-05-15T09:54:35.667Z,51.61
2018-05-15T09:57:02.126Z,51.14
2018-05-15T09:59:28.684Z,51.24
2018-05-15T10:01:55.258Z,50.70
2018-05-15T10:04:21.728Z,51.11
2018-05-15T10:06:48.197Z,51.30
2018-05-15T10:09:14.828Z,48.11
2018-05-15T10:11:41.403Z,45.96
2018-05-15T10:14:08.145Z,48.35
2018-05-15T10:16:34.877Z,49.57
2018-05-15T10:19:01.471Z,49.92
2018-05-15T10:21:28.070Z,50.17
2018-05-15T10:23:54.695Z,49.48
2018-05-15T10:26:21.369Z,49.58
2018-05-15T10:28:47.987Z,48.69
2018-05-15T10:31:14.602Z,46.90
2018-05-15T10:33:41.375Z,46.17
2018-05-15T10:36:07.933Z,49.12
2018-05-15T10:38:34.581Z,49.39
2018-05-15T10:41:01.139Z,49.34
2018-05-15T10:43:27.763Z,47.80
2018-05-15T10:45:54.538Z,46.72
2018-05-15T10:48:21.228Z,46.52
2018-05-15T10:50:47.850Z,46.57
2018-05-15T10:53:14.531Z,44.05
2018-05-15T10:55:41.089Z,43.64
2018-05-15T10:58:07.696Z,43.95
2018-05-15T11:00:34.183Z,43.81
2018-05-15T11:03:00.939Z,43.76
2018-05-15T11:05:27.567Z,43.71
2018-05-15T11:07:54.116Z,44.35
2018-05-15T11:10:20.769Z,41.09
2018-05-15T11:12:47.409Z,39.34
2018-05-15T11:15:13.861Z,40.25
2018-05-15T11:17:40.531Z,41.43
2018-05-15T11:20:19.473Z,41.16
2018-05-15T11:22:58.098Z,39.81
2018-05-15T11:25:24.579Z,40.38
2018-05-15T11:27:51.209Z,40.03
2018-05-15T11:30:17.887Z,40.52
2018-05-15T11:32:44.371Z,39.94
2018-05-15T11:35:10.976Z,39.79
2018-05-15T11:37:37.521Z,40.21
2018-05-15T11:40:04.161Z,40.58
2018-05-15T11:42:30.836Z,40.31
2018-05-15T11:44:57.274Z,40.12
2018-05-15T11:47:23.814Z,38.47
2018-05-15T11:49:50.743Z,38.63
2018-05-15T11:52:17.717Z,39.65
2018-05-15T11:54:43.502Z,39.53
2018-05-15T11:57:10.171Z,39.71
2018-05-15T11:59:36.737Z,40.17
2018-05-15T12:02:03.457Z,39.77
2018-05-15T12:04:30.041Z,39.03
2018-05-15T12:06:56.806Z,39.22
2018-05-15T12:09:23.364Z,39.04
2018-05-15T12:11:49.886Z,39.65
2018-05-15T12:14:16.474Z,39.99
2018-05-15T12:16:43.469Z,39.72
2018-05-15T12:19:10.037Z,39.44
2018-05-15T12:21:36.931Z,39.09
2018-05-15T12:24:03.433Z,40.47
2018-05-15T12:26:29.962Z,40.48
2018-05-15T12:28:56.452Z,40.01
2018-05-15T12:31:23.090Z,39.41
2018-05-15T12:33:49.613Z,39.39
2018-05-15T12:36:16.354Z,37.60
2018-05-15T12:38:42.832Z,37.87
2018-05-15T12:41:09.368Z,38.87
2018-05-15T12:43:35.772Z,38.84
2018-05-15T12:46:02.488Z,38.96
2018-05-15T12:48:29.156Z,40.20
2018-05-15T12:50:55.706Z,38.95
2018-05-15T12:53:22.236Z,39.36
2018-05-15T12:55:48.736Z,38.70
2018-05-15T12:58:15.341Z,39.50
2018-05-15T13:00:42.034Z,39.57
2018-05-15T13:03:08.788Z,39.38
2018-05-15T13:05:35.407Z,39.17
2018-05-15T13:08:02.002Z,39.29
2018-05-15T13:10:28.782Z,39.04
2018-05-15T13:13:01.161Z,39.09
2018-05-15T13:15:27.854Z,39.53
2018-05-15T13:17:54.341Z,39.49
2018-05-15T13:20:20.886Z,39.33
2018-05-15T13:22:47.480Z,39.60
2018-05-15T13:25:13.989Z,39.16
2018-05-15T13:27:40.615Z,38.62
2018-05-15T13:30:22.076Z,39.64
2018-05-15T13:32:48.617Z,39.66
2018-05-15T13:35:15.383Z,39.26
2018-05-15T13:37:41.948Z,39.14
2018-05-15T13:40:08.466Z,39.40
2018-05-15T13:42:35.133Z,39.08
2018-05-15T13:45:01.739Z,39.29
2018-05-15T13:47:28.253Z,39.01
2018-05-15T13:49:55.019Z,39.69
2018-05-15T13:52:21.599Z,40.19
2018-05-15T13:54:48.218Z,39.70
2018-05-15T13:57:15.002Z,40.53
2018-05-15T13:59:41.504Z,39.84
2018-05-15T14:02:08.192Z,40.02
2018-05-15T14:04:34.982Z,39.31
2018-05-15T14:07:01.676Z,39.61
2018-05-15T14:09:28.205Z,40.66
2018-05-15T14:11:54.846Z,45.04
2018-05-15T14:14:21.576Z,48.12
2018-05-15T14:16:48.191Z,51.50
2018-05-15T14:19:14.846Z,52.85
2018-05-15T14:21:41.389Z,56.10
2018-05-15T14:24:08.073Z,55.50
2018-05-15T14:26:34.731Z,56.33
2018-05-15T14:29:01.293Z,57.12
2018-05-15T14:31:28.020Z,56.96
2018-05-15T14:33:54.526Z,57.42
2018-05-15T14:36:21.157Z,57.99
2018-05-15T14:38:47.831Z,58.29
2018-05-15T14:41:14.451Z,58.21
2018-05-15T14:43:40.984Z,56.67
2018-05-15T14:46:07.585Z,55.29
2018-05-15T14:48:34.109Z,54.33
2018-05-15T14:54:08.043Z,52.82
2018-05-15T14:56:34.719Z,53.38
2018-05-15T14:59:01.428Z,50.94
2018-05-15T15:01:28.084Z,51.71
2018-05-15T15:03:54.697Z,51.38
2018-05-15T15:06:21.384Z,51.83
2018-05-15T15:08:47.942Z,51.41
2018-05-15T15:11:14.470Z,52.94
2018-05-15T15:13:41.025Z,52.70
2018-05-15T15:16:07.524Z,52.76
2018-05-15T15:18:34.092Z,53.58
2018-05-15T15:21:00.777Z,55.26
2018-05-15T15:23:27.485Z,56.71
2018-05-15T15:25:54.156Z,57.49
2018-05-15T15:28:20.856Z,58.32
2018-05-15T15:30:47.384Z,57.59
2018-05-15T15:33:14.073Z,57.66
2018-05-15T15:35:40.726Z,58.11
2018-05-15T15:38:07.484Z,58.38
2018-05-15T15:40:54.261Z,60.33
2018-05-15T15:43:24.888Z,61.41
2018-05-15T15:45:51.878Z,61.74
2018-05-15T15:48:18.512Z,61.97
2018-05-15T15:50:45.155Z,61.64
2018-05-15T15:53:12.421Z,61.88
2018-05-15T15:55:39.084Z,62.13
2018-05-15T15:58:05.772Z,62.16
2018-05-15T16:00:32.292Z,61.20
2018-05-15T16:02:58.981Z,61.62
2018-05-15T16:05:25.513Z,59.49
2018-05-15T16:07:53.509Z,60.65
2018-05-15T16:10:20.175Z,60.40
2018-05-15T16:12:46.736Z,60.07
2018-05-15T16:15:15.401Z,60.34
2018-05-15T16:17:41.989Z,60.03
2018-05-15T16:20:09.464Z,61.40
2018-05-15T16:22:57.288Z,59.07
2018-05-15T16:25:24.096Z,58.61
2018-05-15T16:27:50.914Z,57.88
2018-05-15T16:30:17.887Z,57.28
2018-05-15T16:32:46.340Z,55.28
2018-05-15T16:35:14.616Z,54.99
2018-05-15T16:37:43.871Z,54.71
2018-05-15T16:40:13.480Z,55.58
2018-05-15T16:42:41.119Z,55.29
2018-05-15T16:45:07.836Z,56.19
2018-05-15T16:47:34.618Z,57.35
2018-05-15T16:50:01.388Z,57.62
2018-05-15T16:52:27.985Z,56.63
2018-05-15T16:54:54.644Z,57.13
2018-05-15T16:57:21.361Z,57.61
2018-05-15T16:59:48.745Z,58.10
2018-05-15T17:02:15.387Z,58.46
2018-05-15T17:04:41.988Z,58.55
2018-05-15T17:07:08.599Z,57.85
2018-05-15T17:09:35.204Z,57.43
2018-05-15T17:12:02.013Z,58.19
2018-05-15T17:14:28.785Z,58.79
2018-05-15T17:16:55.568Z,58.74
2018-05-15T17:19:22.208Z,59.19
2018-05-15T17:21:48.924Z,59.45
2018-05-15T17:24:15.570Z,59.95
2018-05-15T17:26:42.445Z,59.82
2018-05-15T17:29:09.236Z,60.03
2018-05-15T17:34:09.128Z,59.10
2018-05-15T17:36:35.785Z,59.69
2018-05-15T17:39:02.552Z,59.60
2018-05-15T17:41:29.249Z,58.87
2018-05-15T17:43:55.905Z,59.26
2018-05-15T17:46:22.640Z,60.26
2018-05-15T17:48:49.209Z,62.07
2018-05-15T17:51:15.810Z,62.68
2018-05-15T17:53:42.612Z,62.37
2018-05-15T17:56:09.291Z,61.76
2018-05-15T17:58:36.117Z,60.34
2018-05-15T18:01:02.798Z,60.67
2018-05-15T18:03:29.697Z,60.86
2018-05-15T18:05:56.349Z,61.02
2018-05-15T18:08:23.012Z,60.98
2018-05-15T18:10:49.520Z,61.24
2018-05-15T18:13:16.329Z,61.43
2018-05-15T18:15:42.961Z,61.81
2018-05-15T18:18:09.690Z,61.57
2018-05-15T18:20:36.480Z,61.28
2018-05-15T18:23:03.166Z,60.19
2018-05-15T18:25:29.669Z,59.26
2018-05-15T18:27:56.241Z,59.67
2018-05-15T18:30:23.073Z,60.37
2018-05-15T18:32:49.897Z,60.99
2018-05-15T18:35:16.713Z,60.54
2018-05-15T18:37:43.312Z,60.19
2018-05-15T18:40:09.999Z,60.92
2018-05-15T18:42:36.597Z,59.75
2018-05-15T18:45:03.458Z,59.04
2018-05-15T18:47:30.324Z,59.13
2018-05-15T18:49:56.887Z,59.81
2018-05-15T18:52:23.364Z,59.60
2018-05-15T18:54:49.880Z,59.20
2018-05-15T18:57:16.405Z,60.15
2018-05-15T18:59:43.061Z,60.43
2018-05-15T19:02:09.601Z,60.27
2018-05-15T19:04:36.197Z,60.68
2018-05-15T19:07:02.907Z,60.39
2018-05-15T19:09:29.378Z,61.79
2018-05-15T19:11:56.029Z,62.62
2018-05-15T19:14:22.707Z,64.12
2018-05-15T19:16:49.443Z,65.93
2018-05-15T19:19:16.170Z,67.15
2018-05-15T19:21:42.910Z,68.34
2018-05-15T19:24:09.449Z,68.95
2018-05-15T19:26:36.155Z,68.40
2018-05-15T19:29:02.936Z,67.89
2018-05-15T19:31:35.577Z,66.46
2018-05-15T19:34:02.213Z,66.39
2018-05-15T19:36:30.598Z,67.29
2018-05-15T19:39:03.334Z,67.44
2018-05-15T19:41:29.916Z,66.65
2018-05-15T19:43:56.469Z,66.72
2018-05-15T19:46:23.156Z,66.67
2018-05-15T19:48:49.810Z,67.29
2018-05-15T19:51:16.474Z,67.93
2018-05-15T19:53:43.144Z,68.36
2018-05-15T19:56:09.690Z,69.18
2018-05-15T19:58:36.182Z,70.01
2018-05-15T20:01:02.840Z,69.68
2018-05-15T20:03:29.489Z,70.30
2018-05-15T20:05:56.146Z,70.29
2018-05-15T20:08:22.796Z,69.98
2018-05-15T20:10:49.494Z,70.17
2018-05-15T20:13:16.268Z,70.07
2018-05-15T20:15:42.944Z,69.97
2018-05-15T20:18:09.602Z,69.95
2018-05-15T20:20:36.297Z,70.61
2018-05-15T20:23:02.941Z,71.49
2018-05-15T20:25:29.444Z,72.60
2018-05-15T20:27:55.996Z,73.26
2018-05-15T20:30:22.569Z,73.55
2018-05-15T20:32:49.157Z,73.81
2018-05-15T20:35:15.803Z,73.82
2018-05-15T20:37:42.351Z,73.53
2018-05-15T20:40:09.070Z,73.41
2018-05-15T20:42:35.639Z,74.55
2018-05-15T20:45:02.399Z,74.88
2018-05-15T20:47:28.927Z,75.33
2018-05-15T20:49:55.569Z,75.70
2018-05-15T20:52:22.268Z,75.79
2018-05-15T20:54:48.946Z,75.58
2018-05-15T20:57:15.616Z,75.72
2018-05-15T20:59:42.225Z,75.20
2018-05-15T21:02:08.889Z,75.55
2018-05-15T21:04:35.522Z,75.18
2018-05-15T21:07:02.095Z,74.47
2018-05-15T21:09:28.812Z,74.32
2018-05-15T21:11:55.410Z,73.73
2018-05-15T21:14:21.992Z,74.23
2018-05-15T21:16:48.506Z,74.95
2018-05-15T21:19:15.066Z,74.40
2018-05-15T21:21:41.853Z,74.20
2018-05-15T21:24:08.445Z,74.43
2018-05-15T21:26:34.993Z,75.09
2018-05-15T21:29:01.678Z,74.95
2018-05-15T21:31:28.288Z,74.15
2018-05-15T21:33:54.928Z,74.52
2018-05-15T21:36:21.528Z,74.60
2018-05-15T21:38:48.143Z,74.71
2018-05-15T21:41:14.824Z,74.39
2018-05-15T21:43:41.317Z,74.74
2018-05-15T21:46:08.081Z,74.86
2018-05-15T21:48:34.627Z,74.86
2018-05-15T21:51:01.334Z,74.66
2018-05-15T21:53:27.945Z,74.32
2018-05-15T21:55:54.497Z,74.06
2018-05-15T21:58:21.210Z,73.58
2018-05-15T22:00:47.816Z,73.74
2018-05-15T22:03:14.527Z,73.54
2018-05-15T22:05:41.177Z,73.24
2018-05-15T22:08:07.830Z,72.44
2018-05-15T22:10:34.442Z,72.81
2018-05-15T22:13:13.326Z,73.27
2018-05-15T22:15:58.059Z,74.06
2018-05-15T22:18:42.923Z,74.01
2018-05-15T22:21:27.570Z,74.61
2018-05-15T22:23:59.878Z,74.89
2018-05-15T22:26:26.589Z,75.10
2018-05-15T22:28:53.267Z,75.21
2018-05-15T22:31:19.956Z,75.25
2018-05-15T22:33:46.541Z,75.47
2018-05-15T22:36:13.235Z,75.14
2018-05-15T22:38:39.842Z,75.05
2018-05-15T22:41:06.576Z,75.54
2018-05-15T22:43:33.157Z,75.44
2018-05-15T22:45:59.684Z,74.94
2018-05-15T22:48:26.221Z,74.92
2018-05-15T22:50:52.905Z,74.78
2018-05-15T22:53:19.384Z,75.17
2018-05-15T22:55:45.924Z,74.74
2018-05-15T22:58:12.459Z,74.55
2018-05-15T23:00:39.120Z,74.68
2018-05-15T23:03:05.672Z,73.79
2018-05-15T23:05:32.333Z,73.29
2018-05-15T23:07:59.055Z,73.36
2018-05-15T23:10:25.600Z,74.00
2018-05-15T23:12:52.331Z,74.33
2018-05-15T23:15:19.159Z,74.30
2018-05-15T23:17:45.739Z,74.06
2018-05-15T23:20:12.234Z,73.59
2018-05-15T23:22:41.688Z,73.28
2018-05-15T23:25:08.206Z,73.68
2018-05-15T23:27:34.967Z,74.18
2018-05-15T23:30:01.764Z,74.13
2018-05-15T23:32:28.583Z,73.24
2018-05-15T23:34:55.212Z,72.55
2018-05-15T23:37:21.880Z,73.83
2018-05-15T23:39:48.576Z,74.01
2018-05-15T23:42:15.146Z,74.30
2018-05-15T23:44:41.822Z,74.10
2018-05-15T23:47:08.600Z,72.88
2018-05-15T23:49:35.218Z,72.98
2018-05-15T23:52:01.798Z,72.56
2018-05-15T23:54:28.345Z,72.34
2018-05-15T23:56:54.926Z,72.50
2018-05-15T23:59:21.586Z,72.53
